createdAt,value
2023-05-15T00:01:18.870Z,95736.19
2023-05-15T00:03:46.427Z,95753.09
2023-05-15T00:06:15.549Z,95753.16
2023-05-15T00:08:43.069Z,95756.16
2023-05-15T00:11:10.659Z,95741.66
2023-05-15T00:13:38.788Z,95733.50
2023-05-15T00:16:07.325Z,95731.75
2023-05-15T00:18:35.089Z,95742.06
2023-05-15T00:21:02.700Z,95736.72
2023-05-15T00:23:31.501Z,95746.97
2023-05-15T00:25:58.985Z,95744.63
2023-05-15T00:28:26.472Z,95743.06
2023-05-15T00:30:53.965Z,95728.09
2023-05-15T00:33:21.437Z,95719.75
2023-05-15T00:35:48.950Z,95722.16
2023-05-15T00:38:16.460Z,95723.69
2023-05-15T00:40:46.711Z,95728.03
2023-05-15T00:43:15.208Z,95721.31
2023-05-15T00:45:43.380Z,95717.84
2023-05-15T00:48:11.185Z,95713.22
2023-05-15T00:50:41.324Z,95715.19
2023-05-15T00:53:09.417Z,95710.16
2023-05-15T00:55:37.920Z,95711.88
2023-05-15T00:58:08.104Z,95706.38
2023-05-15T01:00:36.068Z,95709.66
2023-05-15T01:03:03.877Z,95718.19
2023-05-15T01:05:31.498Z,95714.09
2023-05-15T01:08:09.407Z,95712.16
2023-05-15T01:10:37.686Z,95719.00
2023-05-15T01:13:08.454Z,95716.09
2023-05-15T01:15:36.946Z,95716.47
2023-05-15T01:18:05.994Z,95714.34
2023-05-15T01:20:41.782Z,95715.72
2023-05-15T01:23:16.685Z,95715.53
2023-05-15T01:26:14.579Z,95705.28
2023-05-15T01:28:49.410Z,95707.22
2023-05-15T01:31:23.416Z,95706.66
2023-05-15T01:33:55.746Z,95702.72
2023-05-15T01:36:27.952Z,95693.78
2023-05-15T01:38:58.950Z,95698.69
2023-05-15T01:41:30.338Z,95700.22
2023-05-15T01:44:05.773Z,95701.88
2023-05-15T01:46:39.150Z,95706.38
2023-05-15T01:49:12.090Z,95703.72
2023-05-15T01:51:40.934Z,95701.69
2023-05-15T01:54:09.879Z,95699.91
2023-05-15T01:56:38.808Z,95696.44
2023-05-15T01:59:09.268Z,95695.56
2023-05-15T02:01:38.279Z,95695.31
2023-05-15T02:04:06.645Z,95686.78
2023-05-15T02:06:34.693Z,95690.75
2023-05-15T02:09:03.974Z,95691.78
2023-05-15T02:11:31.482Z,95693.16
2023-05-15T02:14:01.400Z,95697.56
2023-05-15T02:16:30.263Z,95692.66
2023-05-15T02:18:57.804Z,95696.88
2023-05-15T02:21:25.362Z,95702.69
2023-05-15T02:23:52.863Z,95699.97
2023-05-15T02:26:31.050Z,95697.22
2023-05-15T02:29:11.415Z,95702.72
2023-05-15T02:31:48.567Z,95696.47
2023-05-15T02:34:20.431Z,95693.16
2023-05-15T02:36:50.129Z,95695.63
2023-05-15T02:39:19.298Z,95687.25
2023-05-15T02:41:48.026Z,95688.66
2023-05-15T02:44:16.355Z,95683.34
2023-05-15T02:46:45.507Z,95684.09
2023-05-15T02:49:14.419Z,95685.13
2023-05-15T02:51:41.915Z,95676.31
2023-05-15T02:54:09.862Z,95677.50
2023-05-15T02:56:37.385Z,95686.94
2023-05-15T02:59:05.047Z,95682.34
2023-05-15T03:01:32.519Z,95681.81
2023-05-15T03:04:01.479Z,95671.31
2023-05-15T03:06:28.952Z,95668.19
2023-05-15T03:08:56.424Z,95662.56
2023-05-15T03:11:23.909Z,95670.34
2023-05-15T03:13:51.353Z,95665.22
2023-05-15T03:16:18.835Z,95666.91
2023-05-15T03:18:46.483Z,95665.88
2023-05-15T03:21:15.474Z,95668.47
2023-05-15T03:23:43.007Z,95671.31
2023-05-15T03:26:10.557Z,95671.19
2023-05-15T03:28:38.035Z,95664.00
2023-05-15T03:31:05.760Z,95660.53
2023-05-15T03:33:33.300Z,95656.16
2023-05-15T03:36:00.807Z,95664.75
2023-05-15T03:38:29.614Z,95664.97
2023-05-15T03:40:57.074Z,95663.06
2023-05-15T03:43:24.746Z,95663.69
2023-05-15T03:45:52.224Z,95664.13
2023-05-15T03:48:19.709Z,95659.25
2023-05-15T03:50:47.294Z,95663.34
2023-05-15T03:53:14.918Z,95662.59
2023-05-15T03:55:43.751Z,95665.31
2023-05-15T03:58:11.249Z,95662.22
2023-05-15T04:00:38.719Z,95670.09
2023-05-15T04:03:06.463Z,95662.66
2023-05-15T04:05:34.028Z,95657.38
2023-05-15T04:08:01.523Z,95652.06
2023-05-15T04:10:29.366Z,95663.66
2023-05-15T04:12:58.216Z,95652.53
2023-05-15T04:15:27.029Z,95648.09
2023-05-15T04:17:55.443Z,95645.84
2023-05-15T04:20:25.158Z,95643.19
2023-05-15T04:22:53.291Z,95644.41
2023-05-15T04:25:21.086Z,95638.88
2023-05-15T04:27:49.174Z,95641.69
2023-05-15T04:30:18.279Z,95640.97
2023-05-15T04:32:45.822Z,95643.09
2023-05-15T04:35:14.128Z,95647.66
2023-05-15T04:37:43.280Z,95647.66
2023-05-15T04:40:11.193Z,95638.56
2023-05-15T04:42:39.569Z,95647.06
2023-05-15T04:45:09.118Z,95654.06
2023-05-15T04:47:38.072Z,95656.44
2023-05-15T04:50:06.556Z,95652.84
2023-05-15T04:52:34.157Z,95653.88
2023-05-15T04:55:01.728Z,95646.94
2023-05-15T04:57:29.203Z,95654.50
2023-05-15T04:59:57.989Z,95659.13
2023-05-15T05:02:25.678Z,95651.78
2023-05-15T05:04:54.486Z,95653.81
2023-05-15T05:07:21.991Z,95651.94
2023-05-15T05:09:49.457Z,95650.94
2023-05-15T05:12:16.962Z,95651.47
2023-05-15T05:14:44.841Z,95651.13
2023-05-15T05:17:12.546Z,95657.72
2023-05-15T05:19:40.104Z,95664.34
2023-05-15T05:22:09.093Z,95668.16
2023-05-15T05:24:37.446Z,95670.44
2023-05-15T05:27:05.462Z,95663.88
2023-05-15T05:29:33.137Z,95667.03
2023-05-15T05:32:01.219Z,95671.38
2023-05-15T05:34:29.196Z,95668.25
2023-05-15T05:36:56.683Z,95670.22
2023-05-15T05:39:25.576Z,95665.38
2023-05-15T05:41:53.011Z,95661.50
2023-05-15T05:44:20.529Z,95663.69
2023-05-15T05:46:48.121Z,95674.22
2023-05-15T05:49:15.720Z,95678.34
2023-05-15T05:51:43.802Z,95681.22
2023-05-15T05:54:11.271Z,95688.63
2023-05-15T05:56:40.498Z,95684.69
2023-05-15T05:59:08.022Z,95694.56
2023-05-15T06:01:35.578Z,95686.88
2023-05-15T06:04:03.102Z,95678.50
2023-05-15T06:06:30.788Z,95679.41
2023-05-15T06:08:58.269Z,95675.22
2023-05-15T06:11:25.911Z,95669.84
2023-05-15T06:13:54.726Z,95669.41
2023-05-15T06:16:22.620Z,95668.97
2023-05-15T06:18:50.190Z,95663.91
2023-05-15T06:21:17.710Z,95671.38
2023-05-15T06:23:45.755Z,95658.72
2023-05-15T06:26:13.252Z,95664.63
2023-05-15T06:28:40.706Z,95665.38
2023-05-15T06:31:09.608Z,95657.44
2023-05-15T06:33:37.099Z,95669.84
2023-05-15T06:36:04.783Z,95658.13
2023-05-15T06:38:32.242Z,95667.06
2023-05-15T06:40:59.676Z,95664.03
2023-05-15T06:43:27.128Z,95671.06
2023-05-15T06:45:54.654Z,95671.25
2023-05-15T06:48:23.448Z,95672.91
2023-05-15T06:50:51.430Z,95677.88
2023-05-15T06:53:21.111Z,95666.00
2023-05-15T06:55:48.603Z,95669.19
2023-05-15T06:58:17.922Z,95668.06
2023-05-15T07:00:45.407Z,95664.44
2023-05-15T07:03:14.281Z,95662.34
2023-05-15T07:05:43.284Z,95661.44
2023-05-15T07:08:10.734Z,95666.44
2023-05-15T07:10:38.496Z,95654.00
2023-05-15T07:13:05.994Z,95653.44
2023-05-15T07:15:33.492Z,95650.41
2023-05-15T07:18:01.119Z,95647.28
2023-05-15T07:20:30.927Z,95655.78
2023-05-15T07:23:01.116Z,95650.63
2023-05-15T07:25:28.939Z,95657.25
2023-05-15T07:27:56.746Z,95657.22
2023-05-15T07:30:24.686Z,95650.00
2023-05-15T07:32:52.443Z,95650.59
2023-05-15T07:35:20.127Z,95643.50
2023-05-15T07:37:47.610Z,95643.56
2023-05-15T07:40:16.415Z,95648.41
2023-05-15T07:42:45.087Z,95634.88
2023-05-15T07:45:12.725Z,95637.84
2023-05-15T07:47:46.454Z,95634.25
2023-05-15T07:50:14.805Z,95644.44
2023-05-15T07:52:43.071Z,95644.09
2023-05-15T07:55:11.109Z,95637.16
2023-05-15T07:57:40.767Z,95632.50
2023-05-15T08:00:13.117Z,95629.28
2023-05-15T08:02:40.797Z,95633.47
2023-05-15T08:05:09.201Z,95637.63
2023-05-15T08:07:36.884Z,95638.56
2023-05-15T08:10:06.160Z,95631.59
2023-05-15T08:12:34.311Z,95629.63
2023-05-15T08:15:03.273Z,95638.47
2023-05-15T08:17:30.843Z,95646.16
2023-05-15T08:19:58.333Z,95637.00
2023-05-15T08:22:25.782Z,95632.56
2023-05-15T08:24:53.251Z,95639.50
2023-05-15T08:27:20.852Z,95640.72
2023-05-15T08:29:48.367Z,95636.34
2023-05-15T08:32:17.956Z,95649.50
2023-05-15T08:34:45.585Z,95651.69
2023-05-15T08:37:13.082Z,95655.44
2023-05-15T08:39:40.562Z,95651.88
2023-05-15T08:42:11.844Z,95656.69
2023-05-15T08:44:40.245Z,95651.50
2023-05-15T08:47:08.193Z,95657.31
2023-05-15T08:49:51.390Z,95653.25
2023-05-15T08:52:18.920Z,95645.97
2023-05-15T08:54:48.457Z,95647.81
2023-05-15T08:57:17.220Z,95650.06
2023-05-15T08:59:44.751Z,95645.22
2023-05-15T09:02:12.358Z,95638.25
2023-05-15T09:04:41.338Z,95632.28
2023-05-15T09:07:10.542Z,95634.50
2023-05-15T09:09:38.184Z,95629.22
2023-05-15T09:12:11.430Z,95633.16
2023-05-15T09:14:38.909Z,95624.72
2023-05-15T09:17:06.665Z,95626.31
2023-05-15T09:19:35.380Z,95625.69
2023-05-15T09:22:17.853Z,95624.03
2023-05-15T09:24:47.996Z,95629.13
2023-05-15T09:27:15.969Z,95626.16
2023-05-15T09:29:43.552Z,95616.72
2023-05-15T09:32:12.826Z,95618.81
2023-05-15T09:34:42.310Z,95630.28
2023-05-15T09:37:11.232Z,95619.41
2023-05-15T09:39:44.025Z,95617.19
2023-05-15T09:42:12.689Z,95610.16
2023-05-15T09:44:42.535Z,95612.66
2023-05-15T09:47:11.243Z,95611.63
2023-05-15T09:49:38.926Z,95605.81
2023-05-15T09:52:10.728Z,95602.66
2023-05-15T09:54:38.870Z,95610.75
2023-05-15T09:57:12.589Z,95604.38
2023-05-15T09:59:44.856Z,95600.31
2023-05-15T10:02:15.933Z,95583.03
2023-05-15T10:04:43.464Z,95595.25
2023-05-15T10:07:11.015Z,95586.88
2023-05-15T10:09:39.189Z,95578.03
2023-05-15T10:12:09.177Z,95572.59
2023-05-15T10:14:38.029Z,95579.22
2023-05-15T10:17:05.901Z,95571.88
2023-05-15T10:19:34.749Z,95569.50
2023-05-15T10:22:06.195Z,95565.91
2023-05-15T10:24:34.705Z,95572.97
2023-05-15T10:27:03.041Z,95577.59
2023-05-15T10:29:31.618Z,95576.47
2023-05-15T10:32:01.921Z,95561.13
2023-05-15T10:34:30.036Z,95562.91
2023-05-15T10:36:57.728Z,95571.38
2023-05-15T10:39:28.230Z,95567.56
2023-05-15T10:41:57.293Z,95561.22
2023-05-15T10:44:24.735Z,95552.59
2023-05-15T10:46:53.066Z,95563.53
2023-05-15T10:49:21.929Z,95556.59
2023-05-15T10:51:50.449Z,95559.38
2023-05-15T10:54:17.939Z,95556.19
2023-05-15T10:56:45.642Z,95548.38
2023-05-15T10:59:13.191Z,95541.38
2023-05-15T11:01:42.252Z,95549.91
2023-05-15T11:04:12.403Z,95555.47
2023-05-15T11:06:43.706Z,95547.50
2023-05-15T11:09:36.497Z,95549.41
2023-05-15T11:12:05.239Z,95531.44
2023-05-15T11:14:37.856Z,95532.28
2023-05-15T11:17:06.961Z,95535.69
2023-05-15T11:19:39.457Z,95543.03
2023-05-15T11:22:21.868Z,95551.84
2023-05-15T11:24:52.258Z,95544.06
2023-05-15T11:27:22.049Z,95548.16
2023-05-15T11:30:09.886Z,95542.78
2023-05-15T11:32:51.367Z,95537.44
2023-05-15T11:35:24.221Z,95532.88
2023-05-15T11:37:54.157Z,95529.75
2023-05-15T11:40:24.231Z,95528.81
2023-05-15T11:43:04.723Z,95521.66
2023-05-15T11:45:33.818Z,95518.75
2023-05-15T11:48:03.298Z,95521.84
2023-05-15T11:50:32.032Z,95515.63
2023-05-15T11:53:03.960Z,95517.56
2023-05-15T11:55:33.052Z,95513.88
2023-05-15T11:58:01.101Z,95509.03
2023-05-15T12:00:28.773Z,95508.50
2023-05-15T12:02:56.355Z,95505.28
2023-05-15T12:05:24.410Z,95523.09
2023-05-15T12:07:52.331Z,95526.97
2023-05-15T12:10:21.152Z,95535.41
2023-05-15T12:12:49.885Z,95557.03
2023-05-15T12:15:18.449Z,95557.78
2023-05-15T12:17:46.695Z,95545.81
2023-05-15T12:20:17.774Z,95551.38
2023-05-15T12:22:45.800Z,95534.13
2023-05-15T12:25:17.709Z,95534.91
2023-05-15T12:27:46.612Z,95543.28
2023-05-15T12:30:15.172Z,95536.72
2023-05-15T12:32:43.440Z,95547.97
2023-05-15T12:35:12.674Z,95557.19
2023-05-15T12:37:41.061Z,95584.19
2023-05-15T12:40:10.578Z,95581.06
2023-05-15T12:42:42.459Z,95565.97
2023-05-15T12:45:15.518Z,95565.41
2023-05-15T12:47:43.737Z,95565.03
2023-05-15T12:50:16.636Z,95558.66
2023-05-15T12:52:53.960Z,95549.28
2023-05-15T12:55:25.656Z,95551.47
2023-05-15T12:57:53.738Z,95544.03
2023-05-15T13:00:23.856Z,95536.56
2023-05-15T13:02:53.453Z,95540.59
2023-05-15T13:05:23.394Z,95529.00
2023-05-15T13:07:51.811Z,95528.34
2023-05-15T13:10:22.392Z,95522.69
2023-05-15T13:12:49.968Z,95520.44
2023-05-15T13:15:26.891Z,95512.59
2023-05-15T13:17:57.327Z,95512.97
2023-05-15T13:20:25.673Z,95518.56
2023-05-15T13:22:53.343Z,95514.22
2023-05-15T13:25:21.852Z,95521.28
2023-05-15T13:27:49.973Z,95522.78
2023-05-15T13:30:17.990Z,95519.69
2023-05-15T13:32:47.284Z,95520.81
2023-05-15T13:35:15.028Z,95517.31
2023-05-15T13:37:43.145Z,95517.94
2023-05-15T13:40:12.237Z,95513.44
2023-05-15T13:42:40.673Z,95504.78
2023-05-15T13:45:09.528Z,95505.72
2023-05-15T13:47:39.302Z,95505.41
2023-05-15T13:50:09.766Z,95504.81
2023-05-15T13:52:37.597Z,95502.22
2023-05-15T13:55:05.924Z,95501.19
2023-05-15T13:57:33.757Z,95500.41
2023-05-15T14:00:01.254Z,95510.97
2023-05-15T14:02:29.254Z,95503.47
2023-05-15T14:04:56.786Z,95502.72
2023-05-15T14:07:26.512Z,95488.19
2023-05-15T14:09:54.006Z,95494.88
2023-05-15T14:12:22.074Z,95494.16
2023-05-15T14:14:50.320Z,95492.50
2023-05-15T14:17:18.254Z,95486.56
2023-05-15T14:19:45.924Z,95491.47
2023-05-15T14:22:13.373Z,95504.72
2023-05-15T14:24:42.484Z,95508.53
2023-05-15T14:27:10.084Z,95521.69
2023-05-15T14:29:37.559Z,95518.97
2023-05-15T14:32:05.377Z,95524.78
2023-05-15T14:34:33.079Z,95524.34
2023-05-15T14:37:00.513Z,95518.97
2023-05-15T14:39:28.075Z,95529.47
2023-05-15T14:41:56.882Z,95521.47
2023-05-15T14:44:24.328Z,95528.31
2023-05-15T14:47:06.608Z,95539.56
2023-05-15T14:49:34.093Z,95541.72
2023-05-15T14:52:01.570Z,95545.59
2023-05-15T14:54:29.450Z,95553.06
2023-05-15T14:56:58.434Z,95563.06
2023-05-15T14:59:26.059Z,95570.81
2023-05-15T15:01:53.525Z,95568.69
2023-05-15T15:04:21.040Z,95579.09
2023-05-15T15:06:48.740Z,95584.78
2023-05-15T15:09:17.341Z,95574.00
2023-05-15T15:11:45.804Z,95586.97
2023-05-15T15:14:14.605Z,95584.91
2023-05-15T15:16:44.061Z,95580.66
2023-05-15T15:19:11.660Z,95587.25
2023-05-15T15:21:39.240Z,95596.97
2023-05-15T15:24:07.272Z,95587.00
2023-05-15T15:26:34.773Z,95583.25
2023-05-15T15:29:02.409Z,95577.53
2023-05-15T15:31:31.642Z,95572.13
2023-05-15T15:33:59.709Z,95566.84
2023-05-15T15:36:27.255Z,95563.56
2023-05-15T15:38:54.707Z,95554.88
2023-05-15T15:41:23.348Z,95551.38
2023-05-15T15:43:51.005Z,95550.72
2023-05-15T15:46:18.588Z,95546.59
2023-05-15T15:48:47.447Z,95552.44
2023-05-15T15:51:14.947Z,95548.66
2023-05-15T15:53:42.499Z,95550.25
2023-05-15T15:56:09.982Z,95549.13
2023-05-15T15:58:37.427Z,95551.69
2023-05-15T16:01:05.119Z,95551.69
2023-05-15T16:03:33.384Z,95551.91
2023-05-15T16:06:02.370Z,95554.56
2023-05-15T16:08:29.872Z,95561.63
2023-05-15T16:10:57.928Z,95557.63
2023-05-15T16:13:25.414Z,95555.97
2023-05-15T16:15:52.878Z,95565.75
2023-05-15T16:18:20.351Z,95556.69
2023-05-15T16:20:48.651Z,95558.28
2023-05-15T16:23:17.503Z,95559.88
2023-05-15T16:25:45.675Z,95556.34
2023-05-15T16:28:13.123Z,95557.47
2023-05-15T16:30:48.748Z,95562.25
2023-05-15T16:33:17.682Z,95562.34
2023-05-15T16:35:45.488Z,95571.66
2023-05-15T16:38:13.242Z,95571.66
2023-05-15T16:40:42.129Z,95575.63
2023-05-15T16:43:09.677Z,95575.28
2023-05-15T16:45:37.254Z,95581.28
2023-05-15T16:48:05.274Z,95591.63
2023-05-15T16:50:33.690Z,95591.94
2023-05-15T16:53:01.180Z,95592.91
2023-05-15T16:55:28.927Z,95597.31
2023-05-15T16:57:58.779Z,95598.88
2023-05-15T17:00:26.501Z,95597.16
2023-05-15T17:02:54.494Z,95596.19
2023-05-15T17:05:22.103Z,95590.34
2023-05-15T17:07:49.613Z,95602.19
2023-05-15T17:10:17.087Z,95609.75
2023-05-15T17:12:44.890Z,95613.44
2023-05-15T17:15:14.043Z,95615.47
2023-05-15T17:17:41.525Z,95614.34
2023-05-15T17:20:10.085Z,95619.19
2023-05-15T17:22:37.905Z,95619.97
2023-05-15T17:25:06.989Z,95616.19
2023-05-15T17:27:35.794Z,95624.97
2023-05-15T17:30:03.310Z,95622.97
2023-05-15T17:32:32.215Z,95632.78
2023-05-15T17:34:59.655Z,95639.44
2023-05-15T17:37:27.357Z,95648.28
2023-05-15T17:39:55.425Z,95658.13
2023-05-15T17:42:24.972Z,95658.75
2023-05-15T17:44:52.501Z,95658.91
2023-05-15T17:47:19.961Z,95659.78
2023-05-15T17:49:48.737Z,95665.97
2023-05-15T17:52:16.329Z,95663.84
2023-05-15T17:54:43.813Z,95658.97
2023-05-15T17:57:11.484Z,95673.34
2023-05-15T17:59:38.935Z,95670.28
2023-05-15T18:02:06.595Z,95670.06
2023-05-15T18:04:34.192Z,95671.28
2023-05-15T18:07:03.054Z,95679.84
2023-05-15T18:09:30.590Z,95681.81
2023-05-15T18:11:58.058Z,95687.75
2023-05-15T18:14:25.577Z,95688.06
2023-05-15T18:16:53.103Z,95688.66
2023-05-15T18:19:20.722Z,95690.53
2023-05-15T18:21:48.260Z,95693.47
2023-05-15T18:24:17.159Z,95688.50
2023-05-15T18:26:44.752Z,95691.75
2023-05-15T18:29:12.624Z,95699.97
2023-05-15T18:31:40.147Z,95691.56
2023-05-15T18:34:07.705Z,95698.19
2023-05-15T18:36:35.416Z,95697.47
2023-05-15T18:39:03.359Z,95695.34
2023-05-15T18:41:32.138Z,95708.38
2023-05-15T18:43:59.609Z,95706.25
2023-05-15T18:46:28.347Z,95704.53
2023-05-15T18:48:55.981Z,95719.75
2023-05-15T18:51:24.197Z,95719.09
2023-05-15T18:53:51.758Z,95722.81
2023-05-15T18:56:19.230Z,95710.97
2023-05-15T18:58:48.219Z,95718.13
2023-05-15T19:01:15.734Z,95714.47
2023-05-15T19:03:43.234Z,95722.31
2023-05-15T19:06:11.988Z,95730.75
2023-05-15T19:08:39.476Z,95725.06
2023-05-15T19:11:08.668Z,95717.94
2023-05-15T19:13:36.117Z,95726.19
2023-05-15T19:16:06.743Z,95722.69
2023-05-15T19:18:34.349Z,95724.94
2023-05-15T19:21:01.890Z,95731.91
2023-05-15T19:23:29.373Z,95736.03
2023-05-15T19:25:56.903Z,95733.16
2023-05-15T19:28:24.356Z,95738.47
2023-05-15T19:30:51.806Z,95741.56
2023-05-15T19:33:20.984Z,95739.94
2023-05-15T19:35:48.560Z,95745.13
2023-05-15T19:38:16.416Z,95742.38
2023-05-15T19:40:45.341Z,95745.50
2023-05-15T19:43:14.131Z,95749.94
2023-05-15T19:45:42.548Z,95752.84
2023-05-15T19:48:10.840Z,95748.81
2023-05-15T19:50:40.392Z,95752.06
2023-05-15T19:53:07.922Z,95762.56
2023-05-15T19:55:35.833Z,95768.94
2023-05-15T19:58:03.293Z,95772.41
2023-05-15T20:00:30.802Z,95769.59
2023-05-15T20:02:58.347Z,95772.28
2023-05-15T20:05:25.865Z,95770.84
2023-05-15T20:07:54.799Z,95770.00
2023-05-15T20:10:22.479Z,95766.56
2023-05-15T20:12:49.987Z,95777.94
2023-05-15T20:15:18.139Z,95777.97
2023-05-15T20:17:45.667Z,95771.50
2023-05-15T20:20:13.595Z,95771.63
2023-05-15T20:22:44.777Z,95768.22
2023-05-15T20:25:15.107Z,95774.81
2023-05-15T20:27:42.570Z,95773.31
2023-05-15T20:30:11.012Z,95775.94
2023-05-15T20:32:38.563Z,95784.81
2023-05-15T20:35:07.416Z,95787.41
2023-05-15T20:37:34.889Z,95788.81
2023-05-15T20:40:05.180Z,95791.00
2023-05-15T20:42:34.058Z,95788.25
2023-05-15T20:45:01.530Z,95780.81
2023-05-15T20:47:29.047Z,95779.91
2023-05-15T20:49:56.535Z,95775.47
2023-05-15T20:52:24.051Z,95774.81
2023-05-15T20:54:51.540Z,95772.03
2023-05-15T20:57:19.031Z,95769.53
2023-05-15T20:59:47.813Z,95774.84
2023-05-15T21:02:15.283Z,95770.56
2023-05-15T21:04:42.785Z,95773.69
2023-05-15T21:07:10.800Z,95765.38
2023-05-15T21:09:38.278Z,95764.09
2023-05-15T21:12:06.555Z,95769.63
2023-05-15T21:14:34.026Z,95764.31
2023-05-15T21:17:03.095Z,95761.13
2023-05-15T21:19:30.564Z,95762.69
2023-05-15T21:21:58.017Z,95767.97
2023-05-15T21:24:25.470Z,95761.22
2023-05-15T21:26:52.970Z,95755.13
2023-05-15T21:29:20.429Z,95740.16
2023-05-15T21:31:48.243Z,95740.88
2023-05-15T21:34:17.066Z,95745.28
2023-05-15T21:36:44.612Z,95741.31
2023-05-15T21:39:12.130Z,95747.66
2023-05-15T21:41:39.582Z,95756.63
2023-05-15T21:44:07.051Z,95752.28
2023-05-15T21:46:35.192Z,95747.22
2023-05-15T21:49:03.444Z,95743.41
2023-05-15T21:51:32.930Z,95756.28
2023-05-15T21:54:00.389Z,95748.91
2023-05-15T21:56:27.886Z,95755.50
2023-05-15T21:58:55.409Z,95750.81
2023-05-15T22:01:23.010Z,95749.84
2023-05-15T22:03:50.602Z,95748.22
2023-05-15T22:06:18.267Z,95755.31
2023-05-15T22:08:47.059Z,95747.84
2023-05-15T22:11:15.365Z,95756.78
2023-05-15T22:13:42.874Z,95755.66
2023-05-15T22:16:10.413Z,95759.38
2023-05-15T22:18:37.939Z,95761.53
2023-05-15T22:21:06.343Z,95764.91
2023-05-15T22:23:33.844Z,95775.63
2023-05-15T22:26:02.910Z,95772.91
2023-05-15T22:28:30.406Z,95764.47
2023-05-15T22:30:57.912Z,95768.28
2023-05-15T22:33:25.583Z,95770.78
2023-05-15T22:35:53.566Z,95775.25
2023-05-15T22:38:21.227Z,95775.25
2023-05-15T22:40:50.872Z,95785.91
2023-05-15T22:43:19.881Z,95779.66
2023-05-15T22:45:47.391Z,95776.94
2023-05-15T22:48:15.626Z,95776.50
2023-05-15T22:50:43.642Z,95782.28
2023-05-15T22:53:11.158Z,95787.59
2023-05-15T22:55:38.631Z,95781.00
2023-05-15T22:58:06.216Z,95792.66
2023-05-15T23:00:35.264Z,95789.72
2023-05-15T23:03:02.899Z,95784.22
2023-05-15T23:05:30.652Z,95780.56
2023-05-15T23:07:58.133Z,95781.84
2023-05-15T23:10:25.883Z,95783.03
2023-05-15T23:12:53.787Z,95786.34
2023-05-15T23:15:21.330Z,95787.53
2023-05-15T23:17:50.261Z,95788.78
2023-05-15T23:20:18.026Z,95790.19
2023-05-15T23:22:45.515Z,95783.88
2023-05-15T23:25:13.021Z,95792.94
2023-05-15T23:27:40.502Z,95796.13
2023-05-15T23:30:09.761Z,95794.13
2023-05-15T23:32:37.253Z,95798.25
2023-05-15T23:35:07.088Z,95797.81
2023-05-15T23:37:34.559Z,95794.13
2023-05-15T23:40:02.047Z,95800.84
2023-05-15T23:42:31.002Z,95801.50
2023-05-15T23:44:58.466Z,95806.81
2023-05-15T23:47:25.940Z,95797.97
2023-05-15T23:49:53.437Z,95794.63
2023-05-15T23:52:22.476Z,95784.19
2023-05-15T23:54:49.957Z,95788.34
2023-05-15T23:57:17.420Z,95788.34
2023-05-15T23:59:45.006Z,95786.38
